Terminal Aerodrome Forecast
Issued by NWS

Current Version | Previous Version | Graphics & Text | Print | Product List | Glossary On
Versions: 1 2 3 4 5 6 7 8 9 10 11 12 13 14 15 16 17 18 19 20
240
FTUS41 KILN 240637 AAA
TAFLCK
TAF AMD
KLCK 240637Z 2407/2506 00000KT 4SM BR SCT003
     FM241200 32006KT P6SM FEW060
     FM241800 32010KT P6SM BKN035
     FM250200 35005KT P6SM SCT025=

USA.gov is the U.S. government's official web portal to all federal, state and local government web resources and services.